Time;durP1;ratioP1;P1;durP2;ratioP2;P2;SDS_P1;SDS_P2;PMS_P1;PMS_P2;Temp;Humidity;BMP_temperature;BMP_pressure;BME280_temperature;BME280_humidity;BME280_pressure;Samples;Min_cycle;Max_cycle;Signal;HPM_P1;HPM_P2
2023/12/31 05:48:06;;;;;;;3.00;2.10;;;;;;;8.34;100.00;99654.13;4990681;24;20094;-76
2023/12/31 05:50:32;;;;;;;2.97;2.42;;;;;;;8.34;100.00;99660.50;4791842;29;20062;-75
2023/12/31 05:52:57;;;;;;;4.90;3.22;;;;;;;8.39;100.00;99653.75;4783749;29;20087;-76
2023/12/31 05:55:23;;;;;;;4.93;2.63;;;;;;;8.38;100.00;99651.38;4791694;29;20047;-76
2023/12/31 05:57:48;;;;;;;6.32;2.20;;;;;;;8.32;100.00;99648.94;4788980;29;20038;-76
2023/12/31 06:00:14;;;;;;;4.28;2.95;;;;;;;8.36;100.00;99632.22;4793926;29;20073;-75
2023/12/31 06:02:40;;;;;;;7.55;2.80;;;;;;;8.34;100.00;99629.03;4796467;29;20051;-76
2023/12/31 06:05:06;;;;;;;5.65;3.00;;;;;;;8.31;100.00;99625.06;4792797;29;20031;-75
2023/12/31 06:07:31;;;;;;;3.70;2.80;;;;;;;8.35;100.00;99634.22;4797942;29;20043;-76
2023/12/31 06:09:56;;;;;;;4.55;2.47;;;;;;;8.42;100.00;99624.31;4793741;29;20034;-76
2023/12/31 06:12:22;;;;;;;5.93;3.15;;;;;;;8.42;100.00;99618.75;4797786;29;20050;-76
2023/12/31 06:14:47;;;;;;;3.47;3.15;;;;;;;8.33;100.00;99611.50;4794530;29;20026;-76
2023/12/31 06:17:13;;;;;;;8.80;2.90;;;;;;;8.38;100.00;99606.75;4795582;29;20122;-76
2023/12/31 06:19:40;;;;;;;4.90;2.67;;;;;;;8.44;100.00;99610.78;4798500;29;20492;-75
2023/12/31 06:22:05;;;;;;;7.95;3.13;;;;;;;8.40;100.00;99612.72;4795950;29;20038;-76
2023/12/31 06:24:30;;;;;;;6.10;3.00;;;;;;;8.41;100.00;99594.81;4798120;29;20484;-76
2023/12/31 06:26:56;;;;;;;5.95;4.05;;;;;;;8.41;100.00;99578.09;4795424;29;20038;-75
2023/12/31 06:29:21;;;;;;;5.72;3.85;;;;;;;8.40;100.00;99582.84;4793195;29;20031;-75
2023/12/31 06:31:47;;;;;;;6.03;3.00;;;;;;;8.43;100.00;99578.50;4790788;29;20042;-76
2023/12/31 06:34:12;;;;;;;4.45;3.25;;;;;;;8.49;100.00;99576.91;4792592;29;20037;-75
2023/12/31 06:36:38;;;;;;;4.43;2.90;;;;;;;8.43;100.00;99570.13;4798518;29;20039;-78
2023/12/31 06:39:03;;;;;;;5.13;3.35;;;;;;;8.45;100.00;99564.97;4795193;29;20065;-77
2023/12/31 06:41:28;;;;;;;3.88;2.90;;;;;;;8.52;100.00;99565.00;4798148;29;20058;-76
2023/12/31 06:43:54;;;;;;;4.43;2.42;;;;;;;8.52;100.00;99568.56;4788500;29;20125;-76
2023/12/31 06:46:19;;;;;;;5.97;2.63;;;;;;;8.50;100.00;99553.44;4791078;29;20031;-77
2023/12/31 06:48:45;;;;;;;5.15;2.72;;;;;;;8.49;100.00;99547.03;4778128;29;20046;-77
2023/12/31 06:51:10;;;;;;;3.40;2.28;;;;;;;8.51;100.00;99543.84;4779197;29;20135;-76
2023/12/31 06:53:35;;;;;;;6.38;3.28;;;;;;;8.59;100.00;99536.31;4774924;29;20027;-76
2023/12/31 06:56:08;;;;;;;4.88;2.50;;;;;;;8.54;100.00;99543.06;4779222;29;20418;-76
2023/12/31 06:58:35;;;;;;;4.25;3.00;;;;;;;8.54;100.00;99531.91;4777050;29;20127;-77
2023/12/31 07:01:01;;;;;;;4.38;2.60;;;;;;;8.59;100.00;99530.72;4780645;29;20050;-76
2023/12/31 07:03:27;;;;;;;4.90;3.00;;;;;;;8.58;100.00;99529.94;4776724;30;20046;-76
2023/12/31 07:05:52;;;;;;;5.07;2.70;;;;;;;8.63;100.00;99512.00;4780971;29;20037;-76
2023/12/31 07:08:17;;;;;;;3.25;2.65;;;;;;;8.61;100.00;99523.56;4781335;29;20027;-77
2023/12/31 07:10:43;;;;;;;4.13;2.70;;;;;;;8.61;100.00;99508.81;4779396;29;20044;-78
2023/12/31 07:13:08;;;;;;;3.67;2.90;;;;;;;8.61;100.00;99503.22;4775993;29;20394;-77
2023/12/31 07:15:35;;;;;;;3.03;2.67;;;;;;;8.60;100.00;99491.28;4775424;29;20143;-77
2023/12/31 07:18:00;;;;;;;6.22;3.28;;;;;;;8.64;100.00;99472.53;4776461;29;20047;-77
2023/12/31 07:20:26;;;;;;;4.10;2.92;;;;;;;8.64;100.00;99480.91;4775592;30;20031;-76
2023/12/31 07:22:53;;;;;;;3.05;2.15;;;;;;;8.62;100.00;99494.47;4776602;30;20034;-76
2023/12/31 07:25:24;;;;;;;4.65;2.92;;;;;;;8.62;100.00;99488.06;4778655;29;20482;-76
2023/12/31 07:27:50;;;;;;;5.10;3.80;;;;;;;8.64;100.00;99480.91;4776271;29;20405;-76
2023/12/31 07:30:18;;;;;;;3.97;2.83;;;;;;;8.64;100.00;99480.91;4779102;29;20042;-75
2023/12/31 07:32:44;;;;;;;7.30;2.83;;;;;;;8.71;100.00;99485.72;4767985;29;20521;-75
2023/12/31 07:35:09;;;;;;;3.53;2.97;;;;;;;8.75;100.00;99486.50;4770565;30;20043;-75
2023/12/31 07:37:38;;;;;;;3.88;2.65;;;;;;;8.69;100.00;99485.31;4774564;30;20063;-75
2023/12/31 07:40:05;;;;;;;4.32;2.75;;;;;;;8.67;100.00;99479.34;4777790;30;20382;-76
2023/12/31 07:42:30;;;;;;;2.70;2.40;;;;;;;8.68;100.00;99467.75;4779748;29;20035;-76
2023/12/31 07:44:56;;;;;;;3.53;2.70;;;;;;;8.67;100.00;99476.53;4782150;29;20054;-75
2023/12/31 07:47:21;;;;;;;3.58;2.47;;;;;;;8.63;100.00;99476.53;4776417;29;20048;-76
2023/12/31 07:49:48;;;;;;;4.90;2.65;;;;;;;8.71;100.00;99466.97;4777179;30;20150;-76
2023/12/31 07:52:15;;;;;;;4.72;2.42;;;;;;;8.70;100.00;99473.72;4772839;30;20549;-76
2023/12/31 07:54:40;;;;;;;4.65;2.92;;;;;;;8.71;100.00;99464.19;4774244;29;20062;-75
2023/12/31 07:57:05;;;;;;;3.63;2.85;;;;;;;8.68;100.00;99478.91;4775448;29;20543;-76
2023/12/31 07:59:31;;;;;;;6.40;2.85;;;;;;;8.72;100.00;99471.34;4774405;29;20799;-75
2023/12/31 08:01:57;;;;;;;5.47;2.60;;;;;;;8.72;100.00;99464.97;4777571;29;20042;-75
2023/12/31 08:04:23;;;;;;;3.90;2.30;;;;;;;8.80;100.00;99457.41;4767134;29;20470;-76
2023/12/31 08:06:48;;;;;;;4.57;2.33;;;;;;;8.74;100.00;99455.00;4783311;29;20015;-76
2023/12/31 08:09:15;;;;;;;4.13;2.88;;;;;;;8.74;100.00;99457.00;4795132;29;20043;-75
2023/12/31 08:11:40;;;;;;;5.60;3.28;;;;;;;8.71;100.00;99452.22;4795185;30;20042;-76
2023/12/31 08:14:06;;;;;;;5.55;3.13;;;;;;;8.71;100.00;99447.44;4793436;29;20035;-76
2023/12/31 08:16:31;;;;;;;3.10;2.53;;;;;;;8.75;100.00;99444.66;4799130;29;20026;-76
2023/12/31 08:18:56;;;;;;;4.47;2.88;;;;;;;8.71;100.00;99444.66;4808622;29;20052;-76
2023/12/31 08:21:22;;;;;;;4.03;2.60;;;;;;;8.70;100.00;99437.47;4795380;29;20204;-76
2023/12/31 08:23:47;;;;;;;4.50;2.88;;;;;;;8.72;100.00;99439.84;4787972;29;20119;-77
2023/12/31 08:26:13;;;;;;;4.65;2.92;;;;;;;8.72;100.00;99432.28;4788544;29;20039;-76
2023/12/31 08:28:39;;;;;;;5.10;2.97;;;;;;;8.69;100.00;99432.31;4786892;29;20090;-77
2023/12/31 08:31:04;;;;;;;5.22;2.78;;;;;;;8.75;100.00;99434.28;4789327;29;20023;-76
2023/12/31 08:33:30;;;;;;;5.22;3.13;;;;;;;8.73;100.00;99427.53;4784677;29;20094;-77
2023/12/31 08:35:55;;;;;;;6.78;3.35;;;;;;;8.80;100.00;99440.66;4791592;29;20112;-76
2023/12/31 08:38:20;;;;;;;4.90;2.83;;;;;;;8.82;100.00;99427.09;4782753;29;20158;-75
2023/12/31 08:40:46;;;;;;;5.00;2.70;;;;;;;8.85;100.00;99406.75;4787367;29;20027;-76
2023/12/31 08:43:11;;;;;;;5.20;2.60;;;;;;;8.92;100.00;99412.34;4783773;29;20071;-76
2023/12/31 08:45:39;;;;;;;4.72;2.97;;;;;;;8.87;100.00;99409.94;4786132;29;20035;-76
2023/12/31 08:48:07;;;;;;;3.97;2.63;;;;;;;8.83;100.00;99406.34;4787878;29;20043;-76
2023/12/31 08:50:32;;;;;;;4.13;2.75;;;;;;;8.73;100.00;99399.63;4785618;30;20043;-75
2023/12/31 08:52:58;;;;;;;5.20;3.20;;;;;;;8.72;100.00;99395.22;4787992;29;20050;-76
2023/12/31 08:55:23;;;;;;;4.85;3.28;;;;;;;8.83;100.00;99398.00;4785724;30;20047;-77
2023/12/31 08:57:48;;;;;;;5.05;3.08;;;;;;;8.75;100.00;99392.44;4791311;29;20054;-76
2023/12/31 09:00:17;;;;;;;5.25;3.00;;;;;;;8.68;100.00;99389.66;4789205;30;20042;-76
2023/12/31 09:02:43;;;;;;;3.08;2.33;;;;;;;8.68;100.00;99374.91;4787333;29;20035;-76
2023/12/31 09:05:08;;;;;;;5.03;3.30;;;;;;;8.70;100.00;99378.88;4781659;29;20055;-78
2023/12/31 09:07:34;;;;;;;4.45;3.60;;;;;;;8.72;100.00;99382.06;4771352;29;20149;-78
2023/12/31 09:10:02;;;;;;;4.95;2.95;;;;;;;8.71;100.00;99363.75;4771836;29;20038;-78
2023/12/31 09:12:28;;;;;;;6.82;3.65;;;;;;;8.71;100.00;99374.91;4780519;29;20031;-79
2023/12/31 09:14:53;;;;;;;6.43;3.28;;;;;;;8.77;100.00;99364.16;4776789;29;20047;-78
2023/12/31 09:17:18;;;;;;;4.50;2.88;;;;;;;8.77;100.00;99360.53;4762376;29;20035;-76
2023/12/31 09:19:43;;;;;;;6.18;3.40;;;;;;;8.83;100.00;99358.94;4773611;29;20035;-75
2023/12/31 09:22:09;;;;;;;4.57;2.83;;;;;;;8.84;100.00;99377.28;4777013;29;20066;-76
2023/12/31 09:24:35;;;;;;;4.60;2.80;;;;;;;8.82;100.00;99366.50;4775384;29;20113;-76
2023/12/31 09:27:00;;;;;;;4.78;3.67;;;;;;;8.87;100.00;99370.88;4775026;29;20593;-76
2023/12/31 09:29:26;;;;;;;5.72;3.40;;;;;;;8.92;100.00;99340.56;4778942;29;20133;-76
2023/12/31 09:31:51;;;;;;;4.75;3.47;;;;;;;8.95;100.00;99355.69;4770829;29;20039;-76
2023/12/31 09:34:16;;;;;;;7.88;3.38;;;;;;;8.99;100.00;99353.69;4783228;29;20039;-76
2023/12/31 09:36:42;;;;;;;4.97;3.35;;;;;;;9.08;100.00;99342.09;4782596;29;20041;-76
2023/12/31 09:39:08;;;;;;;4.70;3.42;;;;;;;9.24;100.00;99347.22;4780065;29;20440;-76
2023/12/31 09:41:35;;;;;;;7.15;3.33;;;;;;;9.26;100.00;99345.59;4774464;29;20089;-76
2023/12/31 09:44:03;;;;;;;6.55;3.25;;;;;;;9.16;100.00;99338.88;4784595;29;20826;-76
2023/12/31 09:46:32;;;;;;;5.70;3.72;;;;;;;9.20;100.00;99349.22;4774500;29;20131;-76
2023/12/31 09:48:59;;;;;;;5.18;3.22;;;;;;;9.36;100.00;99338.38;4773044;29;20043;-75
2023/12/31 09:51:25;;;;;;;5.28;2.80;;;;;;;9.30;100.00;99337.22;4775837;29;20036;-76
2023/12/31 09:53:54;;;;;;;5.28;3.13;;;;;;;9.40;100.00;99341.94;4775930;29;20058;-76
2023/12/31 09:56:22;;;;;;;4.47;2.75;;;;;;;9.41;100.00;99343.53;4775190;29;20045;-76
2023/12/31 09:58:50;;;;;;;4.90;3.25;;;;;;;9.41;100.00;99340.75;4780047;29;20542;-76
2023/12/31 10:01:16;;;;;;;5.07;3.38;;;;;;;9.41;100.00;99343.53;4776453;29;20521;-76
2023/12/31 10:03:44;;;;;;;6.43;3.65;;;;;;;9.47;100.00;99336.31;4777976;29;20035;-76
2023/12/31 10:06:10;;;;;;;6.10;3.42;;;;;;;9.47;100.00;99330.72;4780845;29;20065;-76
2023/12/31 10:08:38;;;;;;;7.40;4.43;;;;;;;9.50;100.00;99332.69;4780640;29;20039;-77
2023/12/31 10:11:04;;;;;;;4.53;3.60;;;;;;;9.54;100.00;99325.09;4778659;30;20039;-75
2023/12/31 10:13:30;;;;;;;6.30;4.22;;;;;;;9.54;100.00;99319.50;4774363;29;20440;-76
2023/12/31 10:15:55;;;;;;;6.45;3.63;;;;;;;9.57;100.00;99324.28;4783027;29;20035;-76
2023/12/31 10:18:25;;;;;;;8.75;3.63;;;;;;;9.63;100.00;99321.84;4776902;29;20035;-77
2023/12/31 10:20:52;;;;;;;4.78;3.50;;;;;;;9.51;100.00;99311.16;4783414;29;20039;-77
2023/12/31 10:23:18;;;;;;;5.47;4.00;;;;;;;9.56;100.00;99317.09;4774994;29;20171;-76
2023/12/31 10:25:44;;;;;;;6.88;4.10;;;;;;;9.59;100.00;99311.91;4778994;29;20114;-77
2023/12/31 10:28:09;;;;;;;6.22;3.28;;;;;;;9.53;100.00;99309.56;4772725;30;20527;-76
2023/12/31 10:30:38;;;;;;;5.20;3.47;;;;;;;9.48;100.00;99315.56;4778267;29;20070;-76
2023/12/31 10:33:09;;;;;;;5.32;3.85;;;;;;;9.45;100.00;99298.84;4780851;29;20067;-76
2023/12/31 10:35:35;;;;;;;4.00;3.35;;;;;;;9.41;100.00;99326.00;4775316;29;20043;-77
2023/12/31 10:38:04;;;;;;;5.88;4.00;;;;;;;9.34;100.00;99326.84;4774505;29;20403;-77
2023/12/31 10:40:33;;;;;;;6.32;3.60;;;;;;;9.21;100.00;99326.47;4776155;30;20050;-75
2023/12/31 10:42:59;;;;;;;6.07;3.53;;;;;;;9.14;100.00;99340.47;4775427;29;20085;-77
2023/12/31 10:45:26;;;;;;;5.10;2.83;;;;;;;9.04;100.00;99342.09;4769102;29;20071;-76
2023/12/31 10:47:54;;;;;;;5.93;2.90;;;;;;;9.01;100.00;99336.56;4774167;29;20055;-75
2023/12/31 10:50:24;;;;;;;5.43;3.03;;;;;;;8.89;100.00;99332.19;4778188;29;20035;-77
2023/12/31 10:52:55;;;;;;;4.03;3.08;;;;;;;8.86;100.00;99346.97;4784496;29;20096;-75
2023/12/31 10:55:20;;;;;;;4.75;3.33;;;;;;;8.68;100.00;99370.13;4778834;29;20594;-76
2023/12/31 10:57:47;;;;;;;3.17;2.40;;;;;;;8.49;100.00;99368.56;4774313;29;20045;-76
2023/12/31 11:00:15;;;;;;;5.68;2.30;;;;;;;8.52;100.00;99347.47;4782460;29;20043;-76
2023/12/31 11:02:42;;;;;;;2.80;1.92;;;;;;;8.45;100.00;99358.63;4779522;29;20031;-76
2023/12/31 11:05:09;;;;;;;4.78;1.95;;;;;;;8.46;100.00;99349.84;4779100;29;20038;-77
2023/12/31 11:07:38;;;;;;;2.22;1.17;;;;;;;8.47;100.00;99333.91;4776435;29;20044;-76
2023/12/31 11:10:04;;;;;;;3.03;2.25;;;;;;;8.42;100.00;99332.34;4775725;30;20043;-76
2023/12/31 11:12:29;;;;;;;1.60;1.20;;;;;;;8.39;100.00;99324.75;4777010;29;20043;-77
2023/12/31 11:15:07;;;;;;;3.40;1.20;;;;;;;8.38;100.00;99317.56;4780687;29;20059;-76
2023/12/31 11:18:12;;;;;;;1.60;1.15;;;;;;;8.48;100.00;99332.72;4780893;29;20538;-75
2023/12/31 11:20:53;;;;;;;3.40;1.60;;;;;;;8.40;100.00;99331.91;4776275;29;20031;-77
2023/12/31 11:23:37;;;;;;;2.80;1.20;;;;;;;8.46;100.00;99330.34;4776650;30;20069;-76
2023/12/31 11:26:05;;;;;;;1.65;1.02;;;;;;;8.46;100.00;99335.91;4779436;29;20559;-77
2023/12/31 11:28:30;;;;;;;2.20;1.13;;;;;;;8.49;100.00;99328.72;4769698;29;20128;-76
2023/12/31 11:30:57;;;;;;;3.30;1.75;;;;;;;8.49;100.00;99328.72;4783769;29;20074;-75
2023/12/31 11:33:31;;;;;;;1.95;1.27;;;;;;;8.48;100.00;99327.16;4777743;29;20084;-76
2023/12/31 11:36:02;;;;;;;2.38;1.38;;;;;;;8.49;100.00;99325.94;4778860;29;20039;-76
2023/12/31 11:38:47;;;;;;;2.75;1.77;;;;;;;8.53;100.00;99333.09;4775387;29;20027;-75
2023/12/31 11:41:12;;;;;;;2.35;1.55;;;;;;;8.62;100.00;99312.38;4778118;29;20043;-76
2023/12/31 11:43:38;;;;;;;8.25;3.95;;;;;;;8.63;100.00;99306.38;4776971;30;20494;-76
2023/12/31 11:46:04;;;;;;;6.10;3.08;;;;;;;8.71;100.00;99316.34;4771225;29;20044;-76
2023/12/31 11:48:29;;;;;;;5.10;2.30;;;;;;;8.80;100.00;99299.16;4775093;29;20051;-76
2023/12/31 11:51:01;;;;;;;4.45;2.20;;;;;;;8.81;100.00;99283.22;4776936;29;20034;-76
2023/12/31 11:53:27;;;;;;;1.95;1.48;;;;;;;8.79;100.00;99283.63;4787810;29;20128;-75
2023/12/31 11:55:54;;;;;;;4.95;2.03;;;;;;;8.84;100.00;99277.63;4776299;29;20486;-76
2023/12/31 11:58:23;;;;;;;2.70;1.52;;;;;;;8.88;100.00;99283.19;4775981;29;20030;-75
2023/12/31 12:00:52;;;;;;;4.82;1.83;;;;;;;8.93;100.00;99285.56;4775542;29;20057;-76
2023/12/31 12:03:23;;;;;;;2.35;1.45;;;;;;;8.89;100.00;99279.19;4771678;30;20046;-76
2023/12/31 12:05:52;;;;;;;1.90;1.35;;;;;;;8.89;100.00;99279.19;4772345;29;20054;-76
2023/12/31 12:08:18;;;;;;;2.35;1.88;;;;;;;8.83;100.00;99276.00;4775846;29;20039;-77
2023/12/31 12:10:44;;;;;;;5.43;2.80;;;;;;;9.05;100.00;99276.72;4780172;29;20410;-76
2023/12/31 12:13:10;;;;;;;4.90;2.63;;;;;;;8.96;100.00;99270.81;4773963;29;20035;-76
2023/12/31 12:15:36;;;;;;;3.47;2.80;;;;;;;8.97;100.00;99269.59;4774007;29;20046;-76
2023/12/31 12:18:21;;;;;;;6.47;2.97;;;;;;;8.92;100.00;99265.22;4777316;30;20100;-76
2023/12/31 12:20:47;;;;;;;7.25;2.40;;;;;;;8.90;100.00;99278.78;4773958;29;20039;-76
2023/12/31 12:23:16;;;;;;;2.88;1.90;;;;;;;8.89;100.00;99301.50;4769434;29;20082;-76
2023/12/31 12:25:42;;;;;;;5.25;2.50;;;;;;;8.85;100.00;99304.31;4772497;30;20814;-76
2023/12/31 12:28:09;;;;;;;5.18;2.28;;;;;;;8.78;100.00;99301.56;4768246;29;20133;-76
2023/12/31 12:30:34;;;;;;;1.75;1.45;;;;;;;8.62;100.00;99313.19;4771875;30;20042;-76
2023/12/31 12:33:02;;;;;;;6.07;1.30;;;;;;;8.63;100.00;99316.75;4768265;30;20043;-76
2023/12/31 12:35:28;;;;;;;2.33;1.02;;;;;;;8.61;100.00;99319.94;4776158;29;20041;-76
2023/12/31 12:37:54;;;;;;;1.98;0.80;;;;;;;8.62;100.00;99309.56;4773735;30;20414;-76
2023/12/31 12:40:20;;;;;;;3.20;1.35;;;;;;;8.63;100.00;99314.75;4767726;30;20040;-76
2023/12/31 12:42:50;;;;;;;2.35;1.10;;;;;;;8.62;100.00;99304.81;4769864;30;20024;-76
2023/12/31 12:45:16;;;;;;;3.28;1.52;;;;;;;8.58;100.00;99317.97;4773526;30;20040;-76
2023/12/31 12:47:42;;;;;;;3.05;1.30;;;;;;;8.62;100.00;99321.53;4773572;29;20082;-76
2023/12/31 12:50:09;;;;;;;5.00;1.58;;;;;;;8.94;100.00;99309.47;4776314;30;20054;-76
2023/12/31 12:52:34;;;;;;;4.30;1.35;;;;;;;8.98;100.00;99315.84;4768197;29;23245;-75
2023/12/31 12:55:00;;;;;;;7.15;1.65;;;;;;;8.79;100.00;99319.09;4769262;30;20050;-76
2023/12/31 12:57:25;;;;;;;1.95;1.25;;;;;;;8.70;100.00;99323.09;4778324;30;20095;-75
2023/12/31 12:59:51;;;;;;;3.55;1.73;;;;;;;8.69;100.00;99315.94;4768212;29;20039;-76
2023/12/31 13:02:17;;;;;;;2.97;1.20;;;;;;;8.75;100.00;99308.75;4774149;29;20110;-77
2023/12/31 13:04:42;;;;;;;2.58;1.88;;;;;;;9.06;100.00;99328.53;4774281;29;20653;-76
2023/12/31 13:07:08;;;;;;;2.97;1.30;;;;;;;8.85;100.00;99317.47;4776104;29;20126;-75
2023/12/31 13:09:35;;;;;;;3.60;1.65;;;;;;;8.74;100.00;99318.28;4769454;29;20135;-75
2023/12/31 13:12:02;;;;;;;6.00;1.88;;;;;;;8.79;100.00;99322.69;4766960;30;20106;-75
2023/12/31 13:14:27;;;;;;;3.53;1.50;;;;;;;8.74;100.00;99321.09;4771424;30;20039;-72
2023/12/31 13:16:52;;;;;;;3.10;1.60;;;;;;;8.70;100.00;99323.09;4764722;30;20031;-72
2023/12/31 13:19:20;;;;;;;6.68;2.40;;;;;;;8.72;100.00;99320.69;4769438;29;20417;-74
2023/12/31 13:21:46;;;;;;;9.75;5.38;;;;;;;8.79;100.00;99330.25;4773627;30;20027;-72
2023/12/31 13:24:11;;;;;;;12.93;4.47;;;;;;;8.79;100.00;99327.44;4772505;30;20100;-72
2023/12/31 13:26:37;;;;;;;9.73;3.65;;;;;;;8.78;100.00;99331.47;4775334;30;20034;-73
2023/12/31 13:29:02;;;;;;;10.43;4.88;;;;;;;8.85;100.00;99337.00;4769883;29;20043;-72
2023/12/31 13:31:29;;;;;;;7.13;2.78;;;;;;;8.86;100.00;99339.41;4769848;30;20050;-73
2023/12/31 13:33:54;;;;;;;10.10;3.10;;;;;;;8.83;100.00;99342.19;4769562;30;20450;-73
2023/12/31 13:36:20;;;;;;;6.35;3.20;;;;;;;8.86;100.00;99349.78;4773580;29;20088;-73
2023/12/31 13:38:45;;;;;;;4.20;2.28;;;;;;;8.85;100.00;99346.16;4772623;30;20043;-72
2023/12/31 13:41:11;;;;;;;5.60;2.67;;;;;;;8.89;100.00;99344.16;4770809;30;20088;-72
2023/12/31 13:43:37;;;;;;;8.02;3.00;;;;;;;8.88;100.00;99345.38;4774028;29;20039;-71
2023/12/31 13:46:03;;;;;;;6.07;2.83;;;;;;;8.91;100.00;99349.34;4768747;30;20098;-75
2023/12/31 13:48:29;;;;;;;6.93;2.92;;;;;;;8.88;100.00;99352.94;4766246;30;20524;-75
2023/12/31 13:50:54;;;;;;;6.03;2.78;;;;;;;8.86;100.00;99363.72;4774384;29;20106;-73
2023/12/31 13:53:20;;;;;;;3.45;1.80;;;;;;;8.85;100.00;99362.13;4775004;30;20142;-73
2023/12/31 13:55:45;;;;;;;7.03;1.98;;;;;;;8.86;100.00;99361.72;4770295;30;20046;-74
2023/12/31 13:58:11;;;;;;;4.88;2.78;;;;;;;8.88;100.00;99372.47;4778561;29;20498;-73
2023/12/31 14:00:36;;;;;;;4.97;2.42;;;;;;;8.90;100.00;99367.28;4773819;29;20088;-77
2023/12/31 14:03:02;;;;;;;5.50;2.00;;;;;;;8.91;100.00;99366.09;4774000;30;20578;-73
2023/12/31 14:05:27;;;;;;;7.53;2.20;;;;;;;8.93;100.00;99374.84;4769149;30;20043;-74
2023/12/31 14:07:52;;;;;;;5.95;1.65;;;;;;;8.86;100.00;99372.88;4768011;30;20043;-73
2023/12/31 14:10:18;;;;;;;12.50;5.35;;;;;;;12.46;100.00;99381.31;4771305;30;20028;-75
2023/12/31 14:12:43;;;;;;;4.05;2.05;;;;;;;10.29;100.00;99392.84;4767345;30;20463;-74
2023/12/31 14:15:10;;;;;;;6.38;2.28;;;;;;;9.47;100.00;99383.81;4772687;29;20044;-73
2023/12/31 14:17:35;;;;;;;5.80;1.98;;;;;;;9.13;100.00;99389.94;4770364;30;20114;-76
2023/12/31 14:20:01;;;;;;;6.82;2.13;;;;;;;9.31;100.00;99389.06;4771665;29;20042;-75
2023/12/31 14:22:28;;;;;;;4.28;2.35;;;;;;;9.19;100.00;99386.72;4779250;29;20043;-75
2023/12/31 14:24:53;;;;;;;3.50;2.33;;;;;;;9.12;100.00;99399.50;4777592;29;20210;-75
2023/12/31 14:27:18;;;;;;;4.90;1.70;;;;;;;9.09;100.00;99400.31;4777189;29;20465;-75
2023/12/31 14:29:44;;;;;;;7.10;1.85;;;;;;;9.08;100.00;99392.34;4776735;30;20045;-75
2023/12/31 14:32:09;;;;;;;11.18;2.40;;;;;;;9.09;100.00;99382.78;4775403;30;20052;-75
2023/12/31 14:34:35;;;;;;;5.32;2.35;;;;;;;9.04;100.00;99375.59;4781143;29;20063;-75
2023/12/31 14:37:00;;;;;;;6.75;1.95;;;;;;;9.01;100.00;99382.00;4777511;30;20034;-75
2023/12/31 14:39:26;;;;;;;9.05;6.43;;;;;;;8.91;100.00;99388.41;4779966;29;20043;-75
2023/12/31 14:41:51;;;;;;;9.88;3.30;;;;;;;8.94;100.00;99388.41;4775503;30;20035;-75
2023/12/31 14:44:17;;;;;;;9.77;3.40;;;;;;;8.93;100.00;99394.38;4781155;29;20100;-75
2023/12/31 14:46:43;;;;;;;5.45;2.92;;;;;;;8.89;100.00;99391.59;4775208;29;20506;-75
2023/12/31 14:49:09;;;;;;;5.78;2.90;;;;;;;8.83;100.00;99398.78;4778902;29;20054;-75
2023/12/31 14:51:35;;;;;;;7.50;2.53;;;;;;;8.75;100.00;99394.44;4774640;29;20027;-75
2023/12/31 14:54:00;;;;;;;27.08;14.82;;;;;;;8.79;100.00;99386.03;4775414;30;20494;-75
2023/12/31 14:56:27;;;;;;;13.70;7.68;;;;;;;8.79;100.00;99386.84;4772317;29;20117;-75
2023/12/31 14:58:54;;;;;;;6.47;3.25;;;;;;;8.72;100.00;99393.22;4777847;30;20466;-75
2023/12/31 15:01:20;;;;;;;7.70;3.22;;;;;;;8.72;100.00;99387.66;4771772;30;20118;-75
2023/12/31 15:03:45;;;;;;;7.38;3.45;;;;;;;8.62;100.00;99396.84;4769620;30;20084;-75
2023/12/31 15:06:10;;;;;;;12.20;4.85;;;;;;;8.66;100.00;99394.81;4775675;29;20137;-75
2023/12/31 15:08:36;;;;;;;7.57;3.05;;;;;;;8.55;100.00;99382.91;4774400;30;20027;-75
2023/12/31 15:11:02;;;;;;;5.47;2.97;;;;;;;8.49;100.00;99401.22;4779340;30;20042;-75
2023/12/31 15:13:27;;;;;;;8.75;2.63;;;;;;;8.53;100.00;99393.66;4775738;29;20046;-75
2023/12/31 15:15:53;;;;;;;7.22;4.22;;;;;;;8.57;100.00;99397.25;4775450;29;20055;-75
2023/12/31 15:18:18;;;;;;;13.30;5.72;;;;;;;8.57;100.00;99402.81;4776758;29;20041;-75
2023/12/31 15:20:46;;;;;;;7.93;3.30;;;;;;;8.57;100.00;99396.44;4779616;29;20051;-75
2023/12/31 15:23:12;;;;;;;7.22;3.13;;;;;;;8.56;100.00;99395.66;4778562;29;20039;-75
2023/12/31 15:25:37;;;;;;;7.40;3.05;;;;;;;8.58;100.00;99396.06;4777215;30;20119;-75
2023/12/31 15:28:03;;;;;;;8.63;2.85;;;;;;;8.53;100.00;99400.03;4769963;30;20114;-75
2023/12/31 15:30:28;;;;;;;6.40;3.88;;;;;;;8.52;100.00;99389.28;4770895;30;20050;-75
2023/12/31 15:32:53;;;;;;;7.15;4.00;;;;;;;8.51;100.00;99382.09;4779004;29;20039;-75
2023/12/31 15:35:19;;;;;;;7.60;3.50;;;;;;;8.49;100.00;99392.88;4774964;29;20395;-75
2023/12/31 15:37:44;;;;;;;7.55;4.85;;;;;;;8.47;100.00;99389.69;4777663;29;20499;-75
2023/12/31 15:40:10;;;;;;;7.63;3.78;;;;;;;8.47;100.00;99392.47;4777718;29;20066;-75
2023/12/31 15:42:36;;;;;;;8.93;4.18;;;;;;;9.07;100.00;99382.38;4769503;30;20035;-75
2023/12/31 15:45:01;;;;;;;8.25;4.38;;;;;;;8.80;100.00;99387.66;4771370;29;20035;-74
2023/12/31 15:47:29;;;;;;;7.65;4.10;;;;;;;8.56;100.00;99387.28;4774533;29;20414;-74
2023/12/31 15:49:57;;;;;;;7.70;4.93;;;;;;;8.43;100.00;99380.53;4774279;30;20126;-74
2023/12/31 15:52:24;;;;;;;8.93;5.05;;;;;;;8.46;100.00;99386.09;4772099;29;20893;-74
2023/12/31 15:54:49;;;;;;;8.98;4.13;;;;;;;8.38;100.00;99384.47;4771265;29;20198;-74
2023/12/31 15:57:14;;;;;;;10.15;5.63;;;;;;;8.41;100.00;99382.91;4770533;30;20518;-74
2023/12/31 15:59:40;;;;;;;9.25;3.72;;;;;;;8.33;100.00;99371.75;4770719;30;20050;-74
2023/12/31 16:02:11;;;;;;;8.48;5.97;;;;;;;8.34;100.00;99378.91;4776238;29;20494;-74
2023/12/31 16:04:36;;;;;;;11.98;7.45;;;;;;;8.38;100.00;99384.47;4771995;30;20027;-74
2023/12/31 16:07:01;;;;;;;10.43;4.10;;;;;;;8.38;100.00;99386.47;4775274;30;20038;-74
2023/12/31 16:09:27;;;;;;;11.30;5.40;;;;;;;8.39;100.00;99388.06;4773942;30;20082;-74
2023/12/31 16:11:52;;;;;;;16.33;7.60;;;;;;;8.40;100.00;99389.66;4775376;30;20050;-74
2023/12/31 16:14:18;;;;;;;19.85;9.00;;;;;;;8.35;100.00;99377.72;4771715;29;20063;-74
2023/12/31 16:16:43;;;;;;;11.38;5.68;;;;;;;8.42;100.00;99378.94;4770408;30;20035;-74
2023/12/31 16:19:08;;;;;;;10.80;5.47;;;;;;;8.44;100.00;99387.72;4774367;29;20038;-74
2023/12/31 16:21:34;;;;;;;12.07;4.90;;;;;;;8.47;100.00;99364.59;4774541;29;20039;-74
2023/12/31 16:23:59;;;;;;;16.27;7.97;;;;;;;8.41;100.00;99382.91;4771252;29;20051;-74
2023/12/31 16:26:24;;;;;;;14.38;6.45;;;;;;;8.42;100.00;99374.16;4774288;29;20046;-74
2023/12/31 16:28:50;;;;;;;16.38;8.00;;;;;;;8.47;100.00;99372.94;4768332;30;20035;-74
2023/12/31 16:31:15;;;;;;;12.07;8.25;;;;;;;8.48;100.00;99366.19;4771127;29;20502;-74
2023/12/31 16:33:41;;;;;;;16.73;9.93;;;;;;;8.46;100.00;99363.00;4774367;30;20134;-75
2023/12/31 16:36:06;;;;;;;20.75;11.75;;;;;;;8.38;100.00;99370.53;4772947;30;20031;-74
2023/12/31 16:38:32;;;;;;;18.20;11.00;;;;;;;8.41;100.00;99372.56;4771137;29;20039;-74
2023/12/31 16:40:57;;;;;;;13.63;8.38;;;;;;;8.38;100.00;99361.38;4772505;29;20123;-75
2023/12/31 16:43:24;;;;;;;22.42;11.00;;;;;;;8.46;100.00;99365.78;4774736;29;20051;-73
2023/12/31 16:45:50;;;;;;;19.77;9.95;;;;;;;8.39;100.00;99368.53;4770966;30;20039;-74
2023/12/31 16:48:15;;;;;;;24.85;13.95;;;;;;;8.42;100.00;99371.38;4770175;29;20055;-73
2023/12/31 16:50:41;;;;;;;18.00;10.60;;;;;;;8.40;100.00;99373.72;4774056;29;20444;-73
2023/12/31 16:53:08;;;;;;;18.45;11.40;;;;;;;8.41;100.00;99372.56;4774677;29;20047;-72
2023/12/31 16:55:33;;;;;;;19.10;9.43;;;;;;;8.40;100.00;99378.53;4767842;29;20035;-73
2023/12/31 16:57:59;;;;;;;26.00;13.15;;;;;;;8.32;100.00;99380.50;4766881;30;20039;-72
2023/12/31 17:00:24;;;;;;;34.95;20.98;;;;;;;8.33;100.00;99377.31;4772431;30;20060;-72
2023/12/31 17:02:50;;;;;;;20.20;11.70;;;;;;;8.38;100.00;99378.13;4770534;29;20422;-74
2023/12/31 17:05:15;;;;;;;18.83;9.20;;;;;;;8.38;100.00;99386.47;4770327;29;20105;-73
2023/12/31 17:07:40;;;;;;;17.90;8.05;;;;;;;8.37;100.00;99382.09;4771201;29;20059;-74
2023/12/31 17:10:11;;;;;;;12.93;6.35;;;;;;;8.34;100.00;99375.31;4765297;29;20109;-73
2023/12/31 17:12:40;;;;;;;17.23;8.10;;;;;;;8.33;100.00;99388.47;4754676;29;20051;-73
2023/12/31 17:15:07;;;;;;;22.92;9.57;;;;;;;8.33;100.00;99396.84;4771387;29;20038;-76